createdAt,value
2023-04-15T00:14:25.031Z,949
2023-04-15T00:34:25.064Z,947
2023-04-15T00:54:32.150Z,949
2023-04-15T01:14:25.224Z,949
2023-04-15T01:34:25.271Z,950
2023-04-15T01:54:25.319Z,950
2023-04-15T02:14:25.398Z,945
2023-04-15T02:34:25.465Z,946
2023-04-15T02:54:25.531Z,949
2023-04-15T03:14:25.584Z,950
2023-04-15T03:34:32.668Z,946
2023-04-15T03:54:25.711Z,946
2023-04-15T04:14:25.795Z,948
2023-04-15T04:54:25.901Z,948
2023-04-15T05:14:25.976Z,945
2023-04-15T05:34:33.031Z,944
2023-04-15T06:14:26.186Z,945
2023-04-15T06:34:26.220Z,956
2023-04-15T06:54:33.286Z,956
2023-04-15T07:14:26.342Z,957
2023-04-15T07:34:26.400Z,954
2023-04-15T07:54:26.440Z,953
2023-04-15T08:14:26.515Z,957
2023-04-15T08:34:26.578Z,955
2023-04-15T08:54:26.625Z,950
2023-04-15T09:14:33.677Z,951
2023-04-15T09:34:26.716Z,951
2023-04-15T09:54:26.761Z,947
2023-04-15T10:14:26.800Z,946
2023-04-15T10:34:26.874Z,940
2023-04-15T10:54:26.908Z,945
2023-04-15T11:34:35.619Z,943
2023-04-15T11:54:27.043Z,943
2023-04-15T12:14:27.099Z,943
2023-04-15T12:34:27.139Z,944
2023-04-15T12:54:27.171Z,947
2023-04-15T13:14:27.237Z,943
2023-04-15T13:34:27.291Z,939
2023-04-15T14:34:27.442Z,945
2023-04-15T14:54:27.482Z,940
2023-04-15T15:14:27.525Z,943
2023-04-15T15:34:27.594Z,948
2023-04-15T15:54:27.664Z,950
2023-04-15T16:14:27.676Z,951
2023-04-15T16:34:27.726Z,954
2023-04-15T16:54:34.808Z,951
2023-04-15T17:14:27.862Z,948
2023-04-15T17:34:27.895Z,947
2023-04-15T17:54:28.000Z,947
2023-04-15T18:14:34.430Z,952
2023-04-15T18:34:35.087Z,948
2023-04-15T18:54:28.122Z,949
2023-04-15T19:14:28.198Z,949
2023-04-15T19:34:28.232Z,946
2023-04-15T19:54:35.284Z,945
2023-04-15T20:14:28.342Z,947
2023-04-15T20:34:28.390Z,945
2023-04-15T20:54:28.450Z,944
2023-04-15T21:14:28.528Z,945
2023-04-15T21:54:28.625Z,948
2023-04-15T22:14:28.711Z,953
2023-04-15T22:34:35.738Z,948
2023-04-15T22:54:28.784Z,944
2023-04-15T23:14:28.870Z,948
2023-04-15T23:34:28.928Z,947
2023-04-15T23:54:28.954Z,950
